プーケット国際空港の過去48時間の天気

プーケット国際空港 (Phuket Airport)

現在時刻: 1/19 10:11 +07 (1/19 03:11 UTC) 以下の時間は現地時間です。

過去48時間のMETAR気象情報
時間 風向 風速(m/s) 視程 気温(℃) 湿度(%) 気圧(hPa) 天気現象
19 09:30 6 10km以上 27 66 1012
19 09:00 5 10km以上 26 70 1011
19 08:30 東北東 5 10km以上 26 70 1011
19 08:00 東北東 4 10km以上 25 78 1011
19 07:30 東北東 4 10km以上 25 74 1010
19 07:00 東北東 4 10km以上 24 78 1010
19 06:30 5 10km以上 25 74 1010
19 06:00 5 10km以上 25 74 1009
19 05:30 5 10km以上 25 74 1009
19 05:00 6 10km以上 25 74 1009
19 04:30 5 10km以上 25 69 1009
19 04:00 4 10km以上 25 74 1009
19 03:30 東北東 3 10km以上 25 74 1009
19 03:00 東北東 3 10km以上 25 74 1009
19 02:30 東北東 2 10km以上 25 74 1010
19 02:00 東北東 3 10km以上 25 69 1010
19 01:30 東北東 3 10km以上 25 69 1010
19 01:00 4 10km以上 25 74 1010
19 00:30 東北東 3 10km以上 25 74 1011
19 00:00 東北東 3 10km以上 25 74 1011
18 23:30 東北東 3 10km以上 26 70 1011
18 23:00 東北東 3 10km以上 26 70 1011
18 22:30 東北東 4 10km以上 26 70 1011
18 22:00 東北東 4 10km以上 26 70 1010
18 21:30 3 10km以上 27 70 1010
18 21:00 4 10km以上 27 70 1010
18 20:30 4 10km以上 27 70 1010
18 20:00 6 10km以上 27 70 1009
18 19:30 7 10km以上 28 66 1009
18 19:00 7 10km以上 28 66 1008
18 18:30 東南東 7 10km以上 29 62 1008
18 18:00 6 10km以上 30 59 1007
18 17:30 4 10km以上 31 52 1007
18 17:00 東北東 5 10km以上 31 52 1007
18 16:30 6 10km以上 31 49 1007
18 16:00 6 10km以上 31 52 1007
18 15:30 6 10km以上 31 49 1007
18 15:00 7 10km以上 32 49 1007
18 14:30 8 10km以上 32 46 1008
18 14:00 8 10km以上 32 46 1008
18 13:30 東北東 6 10km以上 32 49 1009
18 13:00 9 10km以上 31 52 1009
18 12:30 8 10km以上 31 55 1009
18 12:00 10 10km以上 31 52 1010
18 11:30 8 10km以上 30 55 1011
18 11:00 10 10km以上 29 58 1011
18 10:30 8 10km以上 29 58 1011
18 10:00 7 10km以上 28 66 1012
18 09:30 東北東 7 10km以上 28 66 1012
18 09:00 6 10km以上 27 70 1012
18 08:30 6 10km以上 27 70 1011
18 08:00 5 10km以上 26 74 1011
18 07:30 6 10km以上 26 74 1011
18 07:00 5 10km以上 26 74 1010
18 06:30 5 10km以上 25 78 1010
18 06:00 5 10km以上 25 78 1009
18 05:30 6 10km以上 25 78 1009
18 05:00 東北東 4 10km以上 25 78 1009
18 04:30 5 10km以上 26 74 1009
18 04:00 5 10km以上 26 74 1009
18 03:30 5 10km以上 26 74 1009
18 03:00 東北東 4 10km以上 26 74 1009
18 02:30 東北東 3 10km以上 26 74 1009
VTSP 190230Z 08011KT 040V110 9999 FEW020 27/20 Q1012 NOSIG
VTSP 190200Z 08010KT 030V100 9999 FEW020 26/20 Q1011 NOSIG
VTSP 190130Z 07010KT 020V100 9999 FEW020 26/20 Q1011 NOSIG
VTSP 190100Z 07008KT 290V100 9999 FEW020 25/21 Q1011 NOSIG
VTSP 190030Z 07008KT 030V110 9999 FEW020 25/20 Q1010 NOSIG
VTSP 190000Z 07008KT 020V100 9999 FEW020 24/20 Q1010 NOSIG
VTSP 182330Z 08009KT 9999 FEW020 25/20 Q1010 NOSIG
VTSP 182300Z 08009KT 050V110 9999 FEW020 25/20 Q1009 NOSIG
VTSP 182230Z 08009KT 050V110 9999 FEW020 25/20 Q1009 NOSIG
VTSP 182200Z 09011KT 9999 FEW020 25/20 Q1009 NOSIG
VTSP 182130Z 08009KT 040V110 9999 FEW020 25/19 Q1009 NOSIG
VTSP 182100Z 08008KT 040V110 9999 FEW020 25/20 Q1009 NOSIG
VTSP 182030Z 07006KT 030V100 9999 FEW020 25/20 Q1009 NOSIG
VTSP 182000Z 07006KT 030V100 9999 FEW020 25/20 Q1009 NOSIG
VTSP 181930Z 06004KT 350V110 9999 FEW020 25/20 Q1010 NOSIG
VTSP 181900Z 07006KT 020V100 9999 FEW020 25/19 Q1010 NOSIG
VTSP 181830Z 07006KT 040V110 9999 FEW020 25/19 Q1010 NOSIG
VTSP 181800Z 08007KT 040V110 9999 FEW020 25/20 Q1010 NOSIG
VTSP 181730Z 06005KT 010V110 9999 FEW020 25/20 Q1011 NOSIG
VTSP 181700Z 06005KT 010V110 9999 FEW020 25/20 Q1011 NOSIG
VTSP 181630Z 06005KT 350V130 9999 FEW020 26/20 Q1011 NOSIG
VTSP 181600Z 07005KT 020V110 9999 FEW020 26/20 Q1011 NOSIG
VTSP 181530Z 07008KT 010V100 9999 FEW020 26/20 Q1011 NOSIG
VTSP 181500Z 07008KT 010V100 9999 FEW020 26/20 Q1010 NOSIG
VTSP 181430Z 08006KT 040V100 9999 FEW020 27/21 Q1010 NOSIG
VTSP 181400Z 08008KT 9999 FEW020 27/21 Q1010 NOSIG
VTSP 181330Z 08008KT 9999 FEW020 27/21 Q1010 NOSIG
VTSP 181300Z 10012KT 9999 FEW020 27/21 Q1009 NOSIG
VTSP 181230Z 10013KT 9999 FEW020 28/21 Q1009 NOSIG
VTSP 181200Z 10013KT 9999 FEW020 28/21 Q1008 NOSIG
VTSP 181130Z 11013KT 080V140 9999 FEW020 29/21 Q1008 NOSIG
VTSP 181100Z 09011KT 9999 FEW020 30/21 Q1007 NOSIG
VTSP 181030Z 08008KT 040V110 9999 FEW020 31/20 Q1007 NOSIG
VTSP 181000Z 07010KT 020V100 9999 FEW020 31/20 Q1007 NOSIG
VTSP 180930Z 08011KT 9999 FEW020 31/19 Q1007 NOSIG
VTSP 180900Z 08011KT 040V100 9999 FEW020 31/20 Q1007 NOSIG
VTSP 180830Z 08012KT 9999 FEW020 31/19 Q1007 NOSIG
VTSP 180800Z 08013KT 020V110 9999 FEW020 32/20 Q1007 NOSIG
VTSP 180730Z 09015KT 9999 FEW020 32/19 Q1008 NOSIG
VTSP 180700Z 09015KT 050V120 9999 FEW020 32/19 Q1008 NOSIG
VTSP 180630Z 07012G23KT 030V100 9999 FEW020 32/20 Q1009 NOSIG
VTSP 180600Z 09017KT 050V110 9999 FEW020 31/20 Q1009 NOSIG
VTSP 180530Z 08016KT 9999 FEW020 31/21 Q1009 NOSIG
VTSP 180500Z 09020KT 9999 FEW020 31/20 Q1010 NOSIG
VTSP 180430Z 09015G25KT 9999 FEW020 30/20 Q1011 NOSIG
VTSP 180400Z 09019KT 9999 FEW020 29/20 Q1011 NOSIG
VTSP 180330Z 08016KT 050V110 9999 FEW020 29/20 Q1011 NOSIG
VTSP 180300Z 08014KT 9999 FEW020 28/21 Q1012 NOSIG
VTSP 180230Z 07013KT 040V100 9999 FEW020 28/21 Q1012 NOSIG
VTSP 180200Z 08012KT 9999 FEW020 27/21 Q1012 NOSIG
VTSP 180130Z 08012KT 040V100 9999 FEW020 27/21 Q1011 NOSIG
VTSP 180100Z 08010KT 9999 FEW020 26/21 Q1011 NOSIG
VTSP 180030Z 08012KT 9999 FEW020 26/21 Q1011 NOSIG
VTSP 180000Z 08010KT 9999 FEW020 26/21 Q1010 NOSIG
VTSP 172330Z 08010KT 9999 FEW020 25/21 Q1010 NOSIG
VTSP 172300Z 08010KT 9999 FEW020 25/21 Q1009 NOSIG
VTSP 172230Z 08011KT 9999 FEW020 25/21 Q1009 NOSIG
VTSP 172200Z 07008KT 9999 FEW020 25/21 Q1009 NOSIG
VTSP 172130Z 08009KT 9999 FEW020 26/21 Q1009 NOSIG
VTSP 172100Z 08010KT 060V120 9999 FEW020 26/21 Q1009 NOSIG
VTSP 172030Z 08009KT 9999 FEW020 26/21 Q1009 NOSIG
VTSP 172000Z 07007KT 030V110 9999 FEW020 26/21 Q1009 NOSIG
VTSP 171930Z 07006KT 350V120 9999 FEW020 26/21 Q1009 NOSIG